createdAt,value
2023-02-06T00:00:48.450Z,56.45
2023-02-06T00:03:16.128Z,56.70
2023-02-06T00:05:44.270Z,56.24
2023-02-06T00:08:12.059Z,56.43
2023-02-06T00:10:39.790Z,56.24
2023-02-06T00:13:07.694Z,55.82
2023-02-06T00:15:52.765Z,56.68
2023-02-06T00:18:21.038Z,56.71
2023-02-06T00:20:48.756Z,56.70
2023-02-06T00:23:19.280Z,56.03
2023-02-06T00:25:53.516Z,56.40
2023-02-06T00:28:21.226Z,56.22
2023-02-06T00:30:50.531Z,55.91
2023-02-06T00:33:19.858Z,56.31
2023-02-06T00:35:48.854Z,56.17
2023-02-06T00:38:16.553Z,56.62
2023-02-06T00:40:44.305Z,56.57
2023-02-06T00:43:11.982Z,56.09
2023-02-06T00:45:39.776Z,56.51
2023-02-06T00:48:10.154Z,56.59
2023-02-06T00:50:37.925Z,56.61
2023-02-06T00:53:05.723Z,57.38
2023-02-06T00:55:33.735Z,56.63
2023-02-06T00:58:01.538Z,56.64
2023-02-06T01:00:29.259Z,56.87
2023-02-06T01:02:59.065Z,56.42
2023-02-06T01:05:28.326Z,56.79
2023-02-06T01:07:56.058Z,57.16
2023-02-06T01:10:23.737Z,56.93
2023-02-06T01:12:51.621Z,56.86
2023-02-06T01:15:19.411Z,56.80
2023-02-06T01:17:47.211Z,56.75
2023-02-06T01:20:15.013Z,57.52
2023-02-06T01:22:44.078Z,57.11
2023-02-06T01:25:12.119Z,57.04
2023-02-06T01:27:39.914Z,56.91
2023-02-06T01:30:09.706Z,56.91
2023-02-06T01:32:38.065Z,56.95
2023-02-06T01:35:06.766Z,56.73
2023-02-06T01:37:34.485Z,56.86
2023-02-06T01:40:03.682Z,57.01
2023-02-06T01:42:31.538Z,56.90
2023-02-06T01:45:32.894Z,57.12
2023-02-06T01:48:02.312Z,57.35
2023-02-06T01:50:29.969Z,57.35
2023-02-06T01:52:57.750Z,57.23
2023-02-06T01:55:26.961Z,57.20
2023-02-06T01:57:54.772Z,57.08
2023-02-06T02:03:01.466Z,57.21
2023-02-06T02:05:29.650Z,57.23
2023-02-06T02:08:01.263Z,57.39
2023-02-06T02:10:31.539Z,57.15
2023-02-06T02:12:59.514Z,57.16
2023-02-06T02:15:34.242Z,57.24
2023-02-06T02:18:04.757Z,57.48
2023-02-06T02:20:58.531Z,57.29
2023-02-06T02:23:35.143Z,57.21
2023-02-06T02:26:30.766Z,56.80
2023-02-06T02:29:41.766Z,57.43
2023-02-06T02:32:27.667Z,57.03
2023-02-06T02:35:46.235Z,57.18
2023-02-06T02:38:19.880Z,57.23
2023-02-06T02:40:50.292Z,57.28
2023-02-06T02:43:22.598Z,57.14
2023-02-06T02:45:52.875Z,57.12
2023-02-06T02:48:24.377Z,57.03
2023-02-06T02:50:53.959Z,57.33
2023-02-06T02:53:21.817Z,56.61
2023-02-06T02:55:49.663Z,56.25
2023-02-06T02:58:19.569Z,56.18
2023-02-06T03:00:49.607Z,56.26
2023-02-06T03:03:18.702Z,56.60
2023-02-06T03:06:02.742Z,56.90
2023-02-06T03:08:35.561Z,56.86
2023-02-06T03:11:06.695Z,56.36
2023-02-06T03:13:37.155Z,56.47
2023-02-06T03:16:07.940Z,56.39
2023-02-06T03:18:40.326Z,56.63
2023-02-06T03:21:10.501Z,56.95
2023-02-06T03:23:40.076Z,56.65
2023-02-06T03:26:09.610Z,56.87
2023-02-06T03:28:40.136Z,56.31
2023-02-06T03:31:10.139Z,56.75
2023-02-06T03:33:41.242Z,56.90
2023-02-06T03:36:17.027Z,56.70
2023-02-06T03:38:45.473Z,56.93
2023-02-06T03:41:13.685Z,56.59
2023-02-06T03:43:42.106Z,56.75
2023-02-06T03:46:12.552Z,56.54
2023-02-06T03:48:41.965Z,56.81
2023-02-06T03:51:13.082Z,57.04
2023-02-06T03:53:41.208Z,56.93
2023-02-06T03:56:10.860Z,56.49
2023-02-06T03:58:39.746Z,56.65
2023-02-06T04:01:07.631Z,56.50
2023-02-06T04:03:35.556Z,56.73
2023-02-06T04:06:03.919Z,57.05
2023-02-06T04:08:32.990Z,56.92
2023-02-06T04:11:00.932Z,56.52
2023-02-06T04:13:28.745Z,56.46
2023-02-06T04:15:57.655Z,56.86
2023-02-06T04:18:25.678Z,56.88
2023-02-06T04:20:53.473Z,56.81
2023-02-06T04:23:21.527Z,57.05
2023-02-06T04:25:50.739Z,57.39
2023-02-06T04:28:18.649Z,57.09
2023-02-06T04:30:46.632Z,57.26
2023-02-06T04:33:14.544Z,57.42
2023-02-06T04:35:42.346Z,57.56
2023-02-06T04:38:10.197Z,57.66
2023-02-06T04:40:38.090Z,57.62
2023-02-06T04:43:07.302Z,57.73
2023-02-06T04:45:35.811Z,57.34
2023-02-06T04:48:03.879Z,57.52
2023-02-06T04:50:34.513Z,57.52
2023-02-06T04:53:02.663Z,57.43
2023-02-06T04:55:30.775Z,56.93
2023-02-06T04:57:59.795Z,56.91
2023-02-06T05:00:29.079Z,57.11
2023-02-06T05:02:57.007Z,57.20
2023-02-06T05:05:24.807Z,57.42
2023-02-06T05:07:52.994Z,57.14
2023-02-06T05:10:21.053Z,57.52
2023-02-06T05:12:50.829Z,57.69
2023-02-06T05:15:19.030Z,57.64
2023-02-06T05:17:48.150Z,57.74
2023-02-06T05:20:15.975Z,57.69
2023-02-06T05:22:44.052Z,57.83
2023-02-06T05:25:12.031Z,57.45
2023-02-06T05:27:45.832Z,57.97
2023-02-06T05:30:14.692Z,58.36
2023-02-06T05:32:42.640Z,57.96
2023-02-06T05:35:11.795Z,57.80
2023-02-06T05:37:39.721Z,57.35
2023-02-06T05:40:08.187Z,57.73
2023-02-06T05:42:36.536Z,57.72
2023-02-06T05:45:05.297Z,56.94
2023-02-06T05:47:33.117Z,57.37
2023-02-06T05:50:01.941Z,57.16
2023-02-06T05:52:31.222Z,57.36
2023-02-06T05:55:00.347Z,57.74
2023-02-06T05:57:28.276Z,57.83
2023-02-06T05:59:56.432Z,57.87
2023-02-06T06:02:24.240Z,57.44
2023-02-06T06:04:52.417Z,57.17
2023-02-06T06:07:20.217Z,57.89
2023-02-06T06:09:49.547Z,57.24
2023-02-06T06:12:17.859Z,56.95
2023-02-06T06:14:45.644Z,57.49
2023-02-06T06:17:15.878Z,56.76
2023-02-06T06:19:43.755Z,57.67
2023-02-06T06:22:12.044Z,57.16
2023-02-06T06:24:40.265Z,57.31
2023-02-06T06:27:10.758Z,57.51
2023-02-06T06:29:38.694Z,57.53
2023-02-06T06:32:06.786Z,57.24
2023-02-06T06:34:34.659Z,57.53
2023-02-06T06:37:02.653Z,57.44
2023-02-06T06:39:30.588Z,57.34
2023-02-06T06:41:58.459Z,57.25
2023-02-06T06:44:27.634Z,57.30
2023-02-06T06:46:56.648Z,57.32
2023-02-06T06:49:24.679Z,57.44
2023-02-06T06:51:52.762Z,57.43
2023-02-06T06:54:21.587Z,57.91
2023-02-06T06:56:49.828Z,57.49
2023-02-06T06:59:17.742Z,57.28
2023-02-06T07:01:48.976Z,57.25
2023-02-06T07:04:19.063Z,57.06
2023-02-06T07:06:46.951Z,57.17
2023-02-06T07:09:14.940Z,57.06
2023-02-06T07:11:43.059Z,56.77
2023-02-06T07:14:11.192Z,56.77
2023-02-06T07:16:39.336Z,57.03
2023-02-06T07:19:09.948Z,57.09
2023-02-06T07:21:38.014Z,57.51
2023-02-06T07:24:06.392Z,56.33
2023-02-06T07:26:34.182Z,57.15
2023-02-06T07:29:02.384Z,57.04
2023-02-06T07:31:30.232Z,57.34
2023-02-06T07:33:58.800Z,56.98
2023-02-06T07:36:28.512Z,56.17
2023-02-06T07:38:56.444Z,56.67
2023-02-06T07:41:28.108Z,57.13
2023-02-06T07:43:56.411Z,56.52
2023-02-06T07:46:24.625Z,56.89
2023-02-06T07:48:52.447Z,56.43
2023-02-06T07:51:20.661Z,56.64
2023-02-06T07:53:52.456Z,56.39
2023-02-06T07:56:21.049Z,55.53
2023-02-06T07:58:51.660Z,55.47
2023-02-06T08:03:47.089Z,55.98
2023-02-06T08:06:16.206Z,55.09
2023-02-06T08:08:43.998Z,54.65
2023-02-06T08:11:14.904Z,54.68
2023-02-06T08:13:42.862Z,54.53
2023-02-06T08:16:12.402Z,53.21
2023-02-06T08:18:40.187Z,53.00
2023-02-06T08:21:08.986Z,52.88
2023-02-06T08:23:36.651Z,52.67
2023-02-06T08:26:04.814Z,51.41
2023-02-06T08:28:35.173Z,52.06
2023-02-06T08:31:04.388Z,51.77
2023-02-06T08:33:33.546Z,52.27
2023-02-06T08:36:02.871Z,51.57
2023-02-06T08:38:30.695Z,52.16
2023-02-06T08:40:58.651Z,52.70
2023-02-06T08:43:26.527Z,51.24
2023-02-06T08:45:57.493Z,51.76
2023-02-06T08:48:25.276Z,51.55
2023-02-06T08:51:02.644Z,51.15
2023-02-06T08:53:30.490Z,50.81
2023-02-06T08:56:01.113Z,51.35
2023-02-06T08:58:28.838Z,51.23
2023-02-06T09:00:59.640Z,50.26
2023-02-06T09:03:27.410Z,50.59
2023-02-06T09:06:09.617Z,49.73
2023-02-06T09:08:37.795Z,49.53
2023-02-06T09:11:09.022Z,49.07
2023-02-06T09:13:36.902Z,49.62
2023-02-06T09:16:07.070Z,49.17
2023-02-06T09:18:34.992Z,48.53
2023-02-06T09:21:07.426Z,48.34
2023-02-06T09:23:35.850Z,48.15
2023-02-06T09:26:03.585Z,48.24
2023-02-06T09:28:31.400Z,47.67
2023-02-06T09:30:59.241Z,47.25
2023-02-06T09:33:28.439Z,47.02
2023-02-06T09:36:03.529Z,46.12
2023-02-06T09:38:31.205Z,44.96
2023-02-06T09:41:03.866Z,43.95
2023-02-06T09:43:31.782Z,43.23
2023-02-06T09:46:01.534Z,42.84
2023-02-06T09:48:32.127Z,42.35
2023-02-06T09:51:05.093Z,41.33
2023-02-06T09:53:37.710Z,41.29
2023-02-06T09:56:13.299Z,41.07
2023-02-06T09:58:43.433Z,40.41
2023-02-06T10:01:14.046Z,40.22
2023-02-06T10:03:58.693Z,39.67
2023-02-06T10:06:27.776Z,39.15
2023-02-06T10:09:00.810Z,39.16
2023-02-06T10:11:40.201Z,38.18
2023-02-06T10:14:11.919Z,37.22
2023-02-06T10:16:42.103Z,36.02
2023-02-06T10:19:16.297Z,34.75
2023-02-06T10:21:47.136Z,34.23
2023-02-06T10:24:17.500Z,31.97
2023-02-06T10:26:45.435Z,30.90
2023-02-06T10:29:23.619Z,30.58
2023-02-06T10:31:56.527Z,29.69
2023-02-06T10:34:36.893Z,29.81
2023-02-06T10:37:23.526Z,30.25
2023-02-06T10:40:09.918Z,29.69
2023-02-06T10:42:44.543Z,28.88
2023-02-06T10:45:20.229Z,27.20
2023-02-06T10:47:50.927Z,26.76
2023-02-06T10:50:23.902Z,26.57
2023-02-06T10:52:51.882Z,25.66
2023-02-06T10:55:23.912Z,25.62
2023-02-06T10:57:54.586Z,25.31
2023-02-06T11:00:24.660Z,24.88
2023-02-06T11:03:06.621Z,23.86
2023-02-06T11:05:38.346Z,23.64
2023-02-06T11:08:12.038Z,23.50
2023-02-06T11:10:39.981Z,23.33
2023-02-06T11:13:13.884Z,22.90
2023-02-06T11:15:45.331Z,22.54
2023-02-06T11:18:14.260Z,22.58
2023-02-06T11:20:44.572Z,22.31
2023-02-06T11:23:17.361Z,21.84
2023-02-06T11:25:45.296Z,20.97
2023-02-06T11:28:14.612Z,20.22
2023-02-06T11:30:43.990Z,19.13
2023-02-06T11:33:20.739Z,17.94
2023-02-06T11:35:52.414Z,17.67
2023-02-06T11:38:21.716Z,16.70
2023-02-06T11:40:55.843Z,16.72
2023-02-06T11:43:24.377Z,15.88
2023-02-06T11:45:53.847Z,16.70
2023-02-06T11:48:35.953Z,17.66
2023-02-06T11:51:05.458Z,19.96
2023-02-06T11:53:33.375Z,21.49
2023-02-06T11:56:06.719Z,22.68
2023-02-06T11:58:34.475Z,24.07
2023-02-06T12:01:05.221Z,25.22
2023-02-06T12:03:35.862Z,26.35
2023-02-06T12:06:09.943Z,27.64
2023-02-06T12:08:42.157Z,28.23
2023-02-06T12:11:14.377Z,29.61
2023-02-06T12:13:44.968Z,30.67
2023-02-06T12:16:14.235Z,31.27
2023-02-06T12:18:44.310Z,32.15
2023-02-06T12:21:15.170Z,32.95
2023-02-06T12:23:46.360Z,33.89
2023-02-06T12:26:17.746Z,34.63
2023-02-06T12:28:51.260Z,35.46
2023-02-06T12:31:20.900Z,35.95
2023-02-06T12:33:53.440Z,36.64
2023-02-06T12:36:25.652Z,36.87
2023-02-06T12:38:55.361Z,37.53
2023-02-06T12:41:40.332Z,38.05
2023-02-06T12:44:14.359Z,38.24
2023-02-06T12:46:42.304Z,38.07
2023-02-06T12:49:13.760Z,39.32
2023-02-06T12:51:47.350Z,40.06
2023-02-06T12:54:17.118Z,39.88
2023-02-06T12:56:46.710Z,40.27
2023-02-06T12:59:31.620Z,41.15
2023-02-06T13:02:01.317Z,40.84
2023-02-06T13:04:30.969Z,41.01
2023-02-06T13:07:04.284Z,42.23
2023-02-06T13:09:33.875Z,42.04
2023-02-06T13:12:08.694Z,41.85
2023-02-06T13:14:37.828Z,42.46
2023-02-06T13:17:10.197Z,42.23
2023-02-06T13:20:04.258Z,42.38
2023-02-06T13:22:44.823Z,42.73
2023-02-06T13:25:46.181Z,42.79
2023-02-06T13:28:56.111Z,43.19
2023-02-06T13:31:29.158Z,43.31
2023-02-06T13:33:59.123Z,43.37
2023-02-06T13:36:42.961Z,43.51
2023-02-06T13:39:17.051Z,43.74
2023-02-06T13:41:44.966Z,43.61
2023-02-06T13:44:16.881Z,43.65
2023-02-06T13:47:08.519Z,43.62
2023-02-06T13:49:59.320Z,44.13
2023-02-06T13:52:29.678Z,44.59
2023-02-06T13:55:06.153Z,44.82
2023-02-06T13:57:41.307Z,45.03
2023-02-06T14:00:12.241Z,45.33
2023-02-06T14:02:40.811Z,45.58
2023-02-06T14:05:11.784Z,45.64
2023-02-06T14:07:50.307Z,46.14
2023-02-06T14:10:53.287Z,45.58
2023-02-06T14:13:30.319Z,46.12
2023-02-06T14:16:02.970Z,46.03
2023-02-06T14:18:41.493Z,46.26
2023-02-06T14:21:16.156Z,45.76
2023-02-06T14:23:56.884Z,46.06
2023-02-06T14:26:32.454Z,46.20
2023-02-06T14:29:03.562Z,45.95
2023-02-06T14:31:44.972Z,46.03
2023-02-06T14:34:24.473Z,46.31
2023-02-06T14:37:14.263Z,46.69
2023-02-06T14:39:44.492Z,46.38
2023-02-06T14:42:18.534Z,47.26
2023-02-06T14:44:50.577Z,47.27
2023-02-06T14:47:19.617Z,47.49
2023-02-06T14:49:47.426Z,47.86
2023-02-06T14:52:18.798Z,48.18
2023-02-06T14:54:46.743Z,48.72
2023-02-06T14:57:20.795Z,48.76
2023-02-06T14:59:53.779Z,49.12
2023-02-06T15:02:25.797Z,48.39
2023-02-06T15:04:53.986Z,48.74
2023-02-06T15:07:24.208Z,49.38
2023-02-06T15:10:07.019Z,48.86
2023-02-06T15:12:36.432Z,49.56
2023-02-06T15:15:16.411Z,49.64
2023-02-06T15:17:44.413Z,49.39
2023-02-06T15:20:30.891Z,49.50
2023-02-06T15:23:11.681Z,49.90
2023-02-06T15:25:50.791Z,49.89
2023-02-06T15:28:22.454Z,50.20
2023-02-06T15:30:54.254Z,51.05
2023-02-06T15:33:23.465Z,50.43
2023-02-06T15:35:53.119Z,51.26
2023-02-06T15:38:21.963Z,50.91
2023-02-06T15:40:51.558Z,51.06
2023-02-06T15:43:22.118Z,50.36
2023-02-06T15:45:50.950Z,50.38
2023-02-06T15:48:20.738Z,51.07
2023-02-06T15:50:59.631Z,50.85
2023-02-06T15:53:33.532Z,51.12
2023-02-06T15:56:01.413Z,50.24
2023-02-06T15:58:31.359Z,50.58
2023-02-06T16:00:59.245Z,50.75
2023-02-06T16:03:27.848Z,50.33
2023-02-06T16:05:56.455Z,51.14
2023-02-06T16:08:26.264Z,51.18
2023-02-06T16:10:54.849Z,50.83
2023-02-06T16:13:26.019Z,50.66
2023-02-06T16:16:23.940Z,51.47
2023-02-06T16:18:53.428Z,51.50
2023-02-06T16:21:26.881Z,51.64
2023-02-06T16:24:03.327Z,51.25
2023-02-06T16:26:31.740Z,50.98
2023-02-06T16:29:00.946Z,50.97
2023-02-06T16:31:31.445Z,51.48
2023-02-06T16:34:03.121Z,52.11
2023-02-06T16:36:31.844Z,51.71
2023-02-06T16:39:04.079Z,51.99
2023-02-06T16:41:35.447Z,51.34
2023-02-06T16:44:05.295Z,51.65
2023-02-06T16:46:34.538Z,51.89
2023-02-06T16:49:02.550Z,52.56
2023-02-06T16:51:31.064Z,52.19
2023-02-06T16:53:58.949Z,52.06
2023-02-06T16:56:26.786Z,53.07
2023-02-06T16:58:54.775Z,52.50
2023-02-06T17:01:25.155Z,51.93
2023-02-06T17:03:54.522Z,52.66
2023-02-06T17:06:24.310Z,52.70
2023-02-06T17:08:54.020Z,52.12
2023-02-06T17:11:21.929Z,52.77
2023-02-06T17:13:49.944Z,52.93
2023-02-06T17:16:21.059Z,52.47
2023-02-06T17:18:49.026Z,53.53
2023-02-06T17:21:19.104Z,52.29
2023-02-06T17:23:47.264Z,52.64
2023-02-06T17:26:16.719Z,52.26
2023-02-06T17:28:44.611Z,52.33
2023-02-06T17:33:59.820Z,52.27
2023-02-06T17:36:32.316Z,51.71
2023-02-06T17:39:00.567Z,51.92
2023-02-06T17:41:28.554Z,52.26
2023-02-06T17:43:56.290Z,52.21
2023-02-06T17:46:24.315Z,52.32
2023-02-06T17:48:52.215Z,52.65
2023-02-06T17:51:19.982Z,52.31
2023-02-06T17:53:50.307Z,52.56
2023-02-06T17:56:19.285Z,52.42
2023-02-06T17:58:47.054Z,52.27
2023-02-06T18:01:15.825Z,52.01
2023-02-06T18:03:44.382Z,52.16
2023-02-06T18:06:12.750Z,52.32
2023-02-06T18:08:40.811Z,52.21
2023-02-06T18:11:11.511Z,51.82
2023-02-06T18:13:39.587Z,51.82
2023-02-06T18:16:08.395Z,52.88
2023-02-06T18:18:37.187Z,52.03
2023-02-06T18:21:05.011Z,51.86
2023-02-06T18:23:32.850Z,52.58
2023-02-06T18:26:02.156Z,52.68
2023-02-06T18:28:31.335Z,52.66
2023-02-06T18:31:01.744Z,52.70
2023-02-06T18:33:29.665Z,52.99
2023-02-06T18:35:57.458Z,52.62
2023-02-06T18:38:25.651Z,53.06
2023-02-06T18:40:53.391Z,52.41
2023-02-06T18:43:20.161Z,52.55
2023-02-06T18:45:49.369Z,52.62
2023-02-06T18:48:17.110Z,52.56
2023-02-06T18:50:44.873Z,53.25
2023-02-06T18:53:12.730Z,52.68
2023-02-06T18:55:40.464Z,53.29
2023-02-06T18:58:08.315Z,52.26
2023-02-06T19:00:37.798Z,51.99
2023-02-06T19:03:07.087Z,52.79
2023-02-06T19:05:35.968Z,53.21
2023-02-06T19:08:03.759Z,52.64
2023-02-06T19:10:31.822Z,53.03
2023-02-06T19:12:59.535Z,53.38
2023-02-06T19:15:27.541Z,53.57
2023-02-06T19:17:55.282Z,53.17
2023-02-06T19:20:24.418Z,52.28
2023-02-06T19:22:53.591Z,52.67
2023-02-06T19:25:21.603Z,53.14
2023-02-06T19:27:49.360Z,53.04
2023-02-06T19:30:17.404Z,53.24
2023-02-06T19:32:48.063Z,53.35
2023-02-06T19:35:17.185Z,52.75
2023-02-06T19:37:46.978Z,53.01
2023-02-06T19:40:15.398Z,53.35
2023-02-06T19:42:44.208Z,53.90
2023-02-06T19:45:11.911Z,53.65
2023-02-06T19:47:42.018Z,53.68
2023-02-06T19:50:14.320Z,54.06
2023-02-06T19:52:42.345Z,54.06
2023-02-06T19:55:11.801Z,54.28
2023-02-06T19:57:39.797Z,54.18
2023-02-06T20:00:08.836Z,54.30
2023-02-06T20:02:36.592Z,54.57
2023-02-06T20:05:04.499Z,54.41
2023-02-06T20:07:32.388Z,54.72
2023-02-06T20:10:01.280Z,54.59
2023-02-06T20:12:42.286Z,54.74
2023-02-06T20:15:10.488Z,54.90
2023-02-06T20:17:38.176Z,54.83
2023-02-06T20:20:08.590Z,54.90
2023-02-06T20:22:48.374Z,54.77
2023-02-06T20:25:20.890Z,55.01
2023-02-06T20:27:50.096Z,55.51
2023-02-06T20:30:22.237Z,55.27
2023-02-06T20:32:50.171Z,55.46
2023-02-06T20:35:18.221Z,55.78
2023-02-06T20:37:46.007Z,55.48
2023-02-06T20:40:13.923Z,55.72
2023-02-06T20:42:44.412Z,55.85
2023-02-06T20:45:16.648Z,55.83
2023-02-06T20:47:44.315Z,55.74
2023-02-06T20:50:22.564Z,55.74
2023-02-06T20:52:52.025Z,55.54
2023-02-06T20:55:23.934Z,56.09
2023-02-06T20:57:51.609Z,56.32
2023-02-06T21:00:21.941Z,55.82
2023-02-06T21:02:51.433Z,56.52
2023-02-06T21:05:20.749Z,56.08
2023-02-06T21:07:48.562Z,56.20
2023-02-06T21:10:16.530Z,56.43
2023-02-06T21:12:44.333Z,56.54
2023-02-06T21:15:12.169Z,56.15
2023-02-06T21:17:41.379Z,56.10
2023-02-06T21:20:10.308Z,56.72
2023-02-06T21:22:38.154Z,56.47
2023-02-06T21:25:06.481Z,55.95
2023-02-06T21:27:34.159Z,56.05
2023-02-06T21:30:02.012Z,56.30
2023-02-06T21:32:30.835Z,56.48
2023-02-06T21:34:59.945Z,56.45
2023-02-06T21:37:27.948Z,56.24
2023-02-06T21:39:55.656Z,56.60
2023-02-06T21:42:26.213Z,56.17
2023-02-06T21:44:54.124Z,56.92
2023-02-06T21:47:21.820Z,56.89
2023-02-06T21:49:50.711Z,56.05
2023-02-06T21:52:19.815Z,56.82
2023-02-06T21:54:47.563Z,56.90
2023-02-06T21:57:15.385Z,56.66
2023-02-06T21:59:43.689Z,56.09
2023-02-06T22:02:11.775Z,56.25
2023-02-06T22:04:39.564Z,56.66
2023-02-06T22:07:09.256Z,56.75
2023-02-06T22:09:38.540Z,57.03
2023-02-06T22:12:07.367Z,57.21
2023-02-06T22:14:35.395Z,57.00
2023-02-06T22:17:03.121Z,56.49
2023-02-06T22:19:31.385Z,56.53
2023-02-06T22:21:59.086Z,57.26
2023-02-06T22:24:27.244Z,56.64
2023-02-06T22:26:56.378Z,56.58
2023-02-06T22:29:24.554Z,57.29
2023-02-06T22:31:52.558Z,56.59
2023-02-06T22:34:21.202Z,56.39
2023-02-06T22:36:51.019Z,56.93
2023-02-06T22:39:18.927Z,57.33
2023-02-06T22:41:46.931Z,57.43
2023-02-06T22:44:17.145Z,57.61
2023-02-06T22:46:45.618Z,56.71
2023-02-06T22:49:13.454Z,56.45
2023-02-06T22:51:41.615Z,57.20
2023-02-06T22:54:10.591Z,56.76
2023-02-06T22:56:38.894Z,57.50
2023-02-06T22:59:07.720Z,57.00
2023-02-06T23:01:38.144Z,56.61
2023-02-06T23:04:06.798Z,57.29
2023-02-06T23:06:35.237Z,57.86
2023-02-06T23:09:03.681Z,57.45
2023-02-06T23:11:32.451Z,57.61
2023-02-06T23:14:01.494Z,57.53
2023-02-06T23:16:29.897Z,56.77
2023-02-06T23:18:59.175Z,56.92
2023-02-06T23:21:27.999Z,57.09
2023-02-06T23:23:56.256Z,57.34
2023-02-06T23:26:24.179Z,57.31
2023-02-06T23:28:52.390Z,57.60
2023-02-06T23:34:03.430Z,56.74
2023-02-06T23:36:31.311Z,56.86
2023-02-06T23:38:58.978Z,56.62
2023-02-06T23:41:28.997Z,57.18
2023-02-06T23:43:57.858Z,56.65
2023-02-06T23:46:25.845Z,56.23
2023-02-06T23:48:53.637Z,56.82
2023-02-06T23:51:23.116Z,56.96
2023-02-06T23:53:50.786Z,56.84
2023-02-06T23:56:21.604Z,56.17
2023-02-06T23:58:49.307Z,57.24
